createdAt,value
2023-02-15T00:02:06.899Z,18.10
2023-02-15T00:07:11.742Z,19.13
2023-02-15T00:12:17.740Z,18.45
2023-02-15T00:17:23.743Z,19.25
2023-02-15T00:22:28.471Z,18.08
2023-02-15T00:27:33.013Z,18.45
2023-02-15T00:32:38.906Z,18.05
2023-02-15T00:37:43.437Z,20.95
2023-02-15T00:47:54.230Z,19.80
2023-02-15T00:52:59.961Z,20.20
2023-02-15T00:58:04.523Z,21.48
2023-02-15T01:03:10.537Z,21.60
2023-02-15T01:08:14.711Z,21.88
2023-02-15T01:13:19.402Z,21.52
2023-02-15T01:18:25.562Z,21.38
2023-02-15T01:23:30.338Z,23.65
2023-02-15T01:28:34.909Z,22.75
2023-02-15T01:33:41.436Z,22.27
2023-02-15T01:38:48.171Z,24.73
2023-02-15T01:43:55.524Z,23.08
2023-02-15T01:49:09.206Z,24.83
2023-02-15T01:54:21.236Z,25.55
2023-02-15T01:59:27.314Z,30.40
2023-02-15T02:04:41.880Z,33.38
2023-02-15T02:09:47.343Z,38.00
2023-02-15T02:14:53.992Z,37.22
2023-02-15T02:20:31.896Z,36.10
2023-02-15T02:26:43.988Z,31.92
2023-02-15T02:32:20.053Z,31.30
2023-02-15T02:42:42.626Z,30.50
2023-02-15T02:47:51.104Z,34.72
2023-02-15T02:52:59.475Z,33.60
2023-02-15T02:58:09.591Z,32.58
2023-02-15T03:03:20.149Z,32.33
2023-02-15T03:08:29.983Z,31.50
2023-02-15T03:13:36.462Z,30.00
2023-02-15T03:18:53.745Z,29.25
2023-02-15T03:24:06.576Z,28.80
2023-02-15T03:29:13.141Z,27.65
2023-02-15T03:34:19.379Z,28.75
2023-02-15T03:39:34.331Z,25.98
2023-02-15T03:44:53.477Z,28.42
2023-02-15T03:50:03.072Z,29.95
2023-02-15T03:55:09.524Z,27.17
2023-02-15T04:00:35.962Z,29.23
2023-02-15T04:05:41.183Z,28.10
2023-02-15T04:10:57.116Z,30.08
2023-02-15T04:16:07.809Z,27.13
2023-02-15T04:21:32.508Z,27.92
2023-02-15T04:26:38.793Z,28.60
2023-02-15T04:31:44.126Z,28.48
2023-02-15T04:36:48.701Z,29.35
2023-02-15T04:41:54.854Z,26.23
2023-02-15T04:46:59.206Z,31.77
2023-02-15T04:52:03.577Z,27.30
2023-02-15T04:57:09.346Z,26.75
2023-02-15T05:02:13.922Z,26.30
2023-02-15T05:07:18.846Z,28.98
2023-02-15T05:12:24.549Z,26.27
2023-02-15T05:17:29.260Z,25.85
2023-02-15T05:22:33.820Z,25.27
2023-02-15T05:27:57.298Z,26.98
2023-02-15T05:33:01.660Z,25.58
2023-02-15T05:38:06.122Z,28.92
2023-02-15T05:43:11.926Z,26.67
2023-02-15T05:48:16.449Z,26.58
2023-02-15T05:53:20.818Z,30.02
2023-02-15T05:58:27.339Z,28.08
2023-02-15T06:03:31.700Z,28.73
2023-02-15T06:08:37.908Z,26.73
2023-02-15T06:13:45.779Z,24.52
2023-02-15T06:18:51.867Z,24.15
2023-02-15T06:23:58.089Z,26.17
2023-02-15T06:29:04.760Z,21.88
2023-02-15T06:34:09.299Z,23.75
2023-02-15T06:39:13.581Z,23.92
2023-02-15T06:44:19.436Z,28.45
2023-02-15T06:49:23.570Z,24.35
2023-02-15T06:54:27.906Z,26.23
2023-02-15T06:59:34.012Z,27.30
2023-02-15T07:04:38.489Z,25.90
2023-02-15T07:14:48.528Z,27.45
2023-02-15T07:19:52.951Z,25.67
2023-02-15T07:24:58.126Z,26.60
2023-02-15T07:35:10.248Z,26.35
2023-02-15T07:40:15.021Z,24.55
2023-02-15T07:45:21.147Z,26.27
2023-02-15T07:50:25.717Z,25.13
2023-02-15T07:55:30.467Z,23.02
2023-02-15T08:06:02.283Z,25.77
2023-02-15T08:11:30.097Z,26.63
2023-02-15T08:16:38.492Z,23.25
2023-02-15T08:21:45.728Z,25.20
2023-02-15T08:26:50.635Z,28.38
2023-02-15T08:32:00.053Z,26.85
2023-02-15T08:37:04.995Z,26.40
2023-02-15T08:42:09.617Z,25.60
2023-02-15T08:47:15.379Z,27.05
2023-02-15T08:52:22.757Z,25.55
2023-02-15T08:57:27.272Z,25.75
2023-02-15T09:02:32.843Z,27.33
2023-02-15T09:07:37.226Z,27.23
2023-02-15T09:12:41.573Z,28.88
2023-02-15T09:17:49.565Z,31.90
2023-02-15T09:22:57.592Z,28.95
2023-02-15T09:28:02.711Z,29.20
2023-02-15T09:33:08.459Z,30.90
2023-02-15T09:38:13.090Z,25.45
2023-02-15T09:43:35.065Z,25.60
2023-02-15T09:48:46.358Z,26.92
2023-02-15T09:54:12.831Z,25.73
2023-02-15T09:59:29.388Z,23.80
2023-02-15T10:04:56.764Z,24.67
2023-02-15T10:10:19.028Z,25.73
2023-02-15T10:15:44.941Z,26.85
2023-02-15T10:21:00.940Z,28.10
2023-02-15T10:26:16.549Z,24.77
2023-02-15T10:31:28.855Z,24.58
2023-02-15T10:37:06.728Z,26.05
2023-02-15T10:42:20.647Z,22.48
2023-02-15T10:48:05.283Z,23.80
2023-02-15T10:53:51.255Z,26.77
2023-02-15T10:59:34.806Z,24.55
2023-02-15T11:05:12.835Z,26.85
2023-02-15T11:10:30.568Z,26.90
2023-02-15T11:15:39.731Z,27.10
2023-02-15T11:20:54.354Z,29.25
2023-02-15T11:26:04.619Z,28.48
2023-02-15T11:31:19.262Z,30.63
2023-02-15T11:41:38.908Z,28.23
2023-02-15T11:46:43.955Z,26.65
2023-02-15T11:56:55.234Z,26.83
2023-02-15T12:01:59.852Z,28.20
2023-02-15T12:07:16.356Z,28.63
2023-02-15T12:12:28.491Z,27.95
2023-02-15T12:17:36.566Z,27.90
2023-02-15T12:22:47.746Z,27.88
2023-02-15T12:27:53.734Z,28.98
2023-02-15T12:33:06.366Z,28.23
2023-02-15T12:38:26.798Z,29.85
2023-02-15T12:43:36.889Z,26.15
2023-02-15T12:48:41.245Z,28.58
2023-02-15T12:53:45.596Z,27.57
2023-02-15T12:59:07.611Z,25.35
2023-02-15T13:04:24.443Z,25.45
2023-02-15T13:09:40.589Z,24.25
2023-02-15T13:14:52.435Z,24.88
2023-02-15T13:19:57.747Z,23.98
2023-02-15T13:25:11.471Z,21.70
2023-02-15T13:30:30.211Z,23.73
2023-02-15T13:35:45.523Z,22.58
2023-02-15T13:40:57.427Z,21.95
2023-02-15T13:46:19.796Z,23.13
2023-02-15T13:51:37.555Z,24.15
2023-02-15T13:57:04.500Z,23.48
2023-02-15T14:02:45.996Z,22.80
2023-02-15T14:08:04.042Z,22.60
2023-02-15T14:13:57.286Z,22.58
2023-02-15T14:19:17.951Z,23.13
2023-02-15T14:24:33.473Z,22.83
2023-02-15T14:29:51.146Z,22.95
2023-02-15T14:35:00.454Z,20.33
2023-02-15T14:40:32.504Z,21.75
2023-02-15T14:45:44.651Z,22.08
2023-02-15T14:50:50.889Z,20.77
2023-02-15T14:56:27.136Z,20.50
2023-02-15T15:01:34.225Z,21.23
2023-02-15T15:06:45.627Z,20.40
2023-02-15T15:11:52.561Z,22.15
2023-02-15T15:16:57.014Z,23.60
2023-02-15T15:22:06.511Z,22.45
2023-02-15T15:27:55.373Z,22.92
2023-02-15T15:33:14.654Z,24.38
2023-02-15T15:38:43.780Z,26.40
2023-02-15T15:44:50.306Z,24.25
2023-02-15T15:49:58.379Z,27.33
2023-02-15T15:55:17.812Z,28.27
2023-02-15T16:00:41.480Z,26.77
2023-02-15T16:05:45.908Z,28.58
2023-02-15T16:10:52.161Z,28.50
2023-02-15T16:15:58.178Z,25.42
2023-02-15T16:21:04.520Z,26.10
2023-02-15T16:26:20.572Z,27.90
2023-02-15T16:31:26.001Z,26.35
2023-02-15T16:36:31.348Z,26.95
2023-02-15T16:41:38.926Z,25.90
2023-02-15T16:46:49.172Z,25.23
2023-02-15T16:51:59.902Z,25.55
2023-02-15T16:57:05.985Z,25.50
2023-02-15T17:02:40.232Z,23.95
2023-02-15T17:07:44.709Z,26.33
2023-02-15T17:12:56.466Z,29.52
2023-02-15T17:18:07.917Z,28.00
2023-02-15T17:23:28.451Z,29.48
2023-02-15T17:28:34.542Z,31.50
2023-02-15T17:33:40.574Z,32.05
2023-02-15T17:39:07.214Z,34.92
2023-02-15T17:44:15.166Z,36.78
2023-02-15T17:49:29.381Z,44.50
2023-02-15T17:54:51.506Z,45.22
2023-02-15T18:00:14.995Z,49.20
2023-02-15T18:05:36.996Z,53.75
2023-02-15T18:10:58.911Z,54.67
2023-02-15T18:16:04.889Z,60.47
2023-02-15T18:21:12.133Z,59.75
2023-02-15T18:26:22.226Z,64.45
2023-02-15T18:31:27.924Z,76.30
2023-02-15T18:36:35.913Z,75.32
2023-02-15T18:41:40.403Z,75.68
2023-02-15T18:46:47.741Z,64.93
2023-02-15T18:51:53.446Z,62.00
2023-02-15T18:57:01.722Z,65.32
2023-02-15T19:02:13.992Z,66.28
2023-02-15T19:07:23.023Z,62.20
2023-02-15T19:12:29.165Z,60.20
2023-02-15T19:17:35.608Z,57.60
2023-02-15T19:22:40.622Z,58.28
2023-02-15T19:27:46.627Z,54.80
2023-02-15T19:32:52.529Z,54.05
2023-02-15T19:38:00.668Z,52.15
2023-02-15T19:43:07.523Z,49.42
2023-02-15T19:48:15.799Z,48.20
2023-02-15T19:53:24.081Z,47.60
2023-02-15T19:58:29.247Z,44.78
2023-02-15T20:03:35.331Z,48.47
2023-02-15T20:08:39.904Z,44.85
2023-02-15T20:13:44.300Z,42.80
2023-02-15T20:18:52.353Z,42.33
2023-02-15T20:23:56.884Z,41.90
2023-02-15T20:29:01.106Z,41.08
2023-02-15T20:34:07.324Z,42.67
2023-02-15T20:39:20.597Z,42.30
2023-02-15T20:44:28.534Z,40.83
2023-02-15T20:49:35.176Z,43.67
2023-02-15T20:54:40.523Z,39.78
2023-02-15T20:59:46.854Z,38.97
2023-02-15T21:04:53.097Z,39.30
2023-02-15T21:09:57.498Z,39.17
2023-02-15T21:15:01.900Z,37.40
2023-02-15T21:20:14.805Z,36.88
2023-02-15T21:25:27.247Z,39.28
2023-02-15T21:30:31.747Z,35.35
2023-02-15T21:35:38.383Z,36.80
2023-02-15T21:40:44.409Z,37.83
2023-02-15T21:46:07.354Z,39.83
2023-02-15T21:51:30.421Z,37.38
2023-02-15T21:56:35.938Z,39.30
2023-02-15T22:01:45.737Z,40.40
2023-02-15T22:06:51.698Z,39.22
2023-02-15T22:11:56.539Z,41.08
2023-02-15T22:17:01.077Z,36.85
2023-02-15T22:22:07.099Z,39.28
2023-02-15T22:27:20.173Z,38.75
2023-02-15T22:32:27.563Z,37.53
2023-02-15T22:37:33.505Z,36.90
2023-02-15T22:42:38.146Z,39.88
2023-02-15T22:52:49.164Z,40.47
2023-02-15T22:57:56.761Z,39.78
2023-02-15T23:03:01.977Z,39.00
2023-02-15T23:08:07.829Z,39.22
2023-02-15T23:13:25.573Z,38.90
2023-02-15T23:18:34.265Z,38.55
2023-02-15T23:23:42.895Z,41.47
2023-02-15T23:28:48.461Z,39.35
2023-02-15T23:33:54.422Z,38.38
2023-02-15T23:39:24.544Z,38.60
2023-02-15T23:44:29.633Z,37.72
2023-02-15T23:49:34.100Z,39.35
2023-02-15T23:54:39.951Z,40.58
2023-02-15T23:59:45.935Z,37.45
